createdAt,value
2019-03-25T04:39:15.558Z,4.30
2019-03-25T04:41:57.753Z,4.40
2019-03-25T04:44:25.775Z,4.30
2019-03-25T04:46:56.579Z,4.40
2019-03-25T04:49:24.574Z,4.40
2019-03-25T04:51:52.404Z,4.50
2019-03-25T04:54:20.358Z,4.40
2019-03-25T04:56:48.004Z,4.40
2019-03-25T04:59:15.820Z,4.30
2019-03-25T05:01:43.498Z,4.30
2019-03-25T05:04:11.247Z,4.30
2019-03-25T05:06:38.990Z,4.40
2019-03-25T05:09:06.799Z,4.40
2019-03-25T05:11:40.336Z,4.40
2019-03-25T05:14:07.996Z,4.40
2019-03-25T05:16:35.773Z,4.50
2019-03-25T05:19:03.553Z,4.50
2019-03-25T05:21:31.315Z,4.60
2019-03-25T05:23:58.984Z,4.70
2019-03-25T05:26:26.808Z,4.80
2019-03-25T05:28:55.571Z,4.90
2019-03-25T05:31:23.238Z,5.00
2019-03-25T05:33:51.182Z,5.10
2019-03-25T05:36:18.833Z,5.20
2019-03-25T05:38:46.564Z,5.50
2019-03-25T05:41:14.232Z,6.00
2019-03-25T05:43:41.978Z,6.50
2019-03-25T05:46:09.680Z,7.10
2019-03-25T05:48:42.692Z,7.80
2019-03-25T05:51:24.742Z,8.10
2019-03-25T05:53:52.412Z,8.20
2019-03-25T05:56:20.107Z,8.40
2019-03-25T05:58:47.901Z,8.80
2019-03-25T06:01:17.998Z,9.10
2019-03-25T06:03:45.644Z,9.30
2019-03-25T06:06:13.342Z,9.50
2019-03-25T06:08:41.123Z,9.90
2019-03-25T06:11:08.816Z,9.60
2019-03-25T06:13:36.547Z,9.50
2019-03-25T06:16:04.358Z,9.50
2019-03-25T06:18:32.030Z,9.80
2019-03-25T06:20:59.829Z,9.60
2019-03-25T06:23:27.570Z,9.80
2019-03-25T06:25:57.620Z,9.50
2019-03-25T06:28:25.535Z,9.20
2019-03-25T06:30:53.349Z,9.10
2019-03-25T06:33:21.248Z,8.90
2019-03-25T06:35:49.048Z,8.70
2019-03-25T06:38:16.732Z,8.50
2019-03-25T06:40:44.539Z,8.40
2019-03-25T06:43:12.380Z,8.30
2019-03-25T06:45:40.227Z,8.20
2019-03-25T06:48:08.247Z,8.10
2019-03-25T06:50:36.022Z,8.00
2019-03-25T06:53:04.154Z,7.90
2019-03-25T06:55:32.012Z,7.80
2019-03-25T06:58:00.146Z,7.70
2019-03-25T07:00:33.633Z,7.60
2019-03-25T07:03:01.428Z,7.60
2019-03-25T07:05:29.199Z,7.60
2019-03-25T07:07:56.871Z,7.70
2019-03-25T07:10:32.500Z,7.80
2019-03-25T07:13:00.929Z,7.80
2019-03-25T07:15:29.012Z,7.90
2019-03-25T07:17:57.101Z,7.80
2019-03-25T07:20:24.875Z,7.70
2019-03-25T07:22:52.526Z,7.60
2019-03-25T07:25:20.232Z,7.50
2019-03-25T07:27:48.008Z,7.30
2019-03-25T07:30:16.283Z,7.20
2019-03-25T07:32:44.083Z,7.10
2019-03-25T07:35:11.944Z,7.10
2019-03-25T07:37:39.738Z,7.20
2019-03-25T07:40:07.809Z,7.30
2019-03-25T07:42:35.735Z,7.30
2019-03-25T07:45:03.543Z,7.30
2019-03-25T07:47:31.480Z,7.30
2019-03-25T07:49:59.285Z,7.20
2019-03-25T07:52:26.960Z,7.20
2019-03-25T07:54:54.668Z,7.30
2019-03-25T07:57:22.446Z,7.30
2019-03-25T07:59:50.222Z,7.30
2019-03-25T08:02:18.023Z,7.30
2019-03-25T08:04:46.103Z,7.20
2019-03-25T08:07:13.907Z,7.20
2019-03-25T08:09:41.700Z,7.20
2019-03-25T08:12:09.464Z,7.20
2019-03-25T08:14:37.187Z,7.20
2019-03-25T08:17:04.956Z,7.10
2019-03-25T08:19:32.725Z,6.90
2019-03-25T08:22:00.495Z,6.70
2019-03-25T08:24:28.272Z,6.60
2019-03-25T08:26:56.079Z,6.60
2019-03-25T08:29:23.718Z,6.40
2019-03-25T08:31:51.563Z,6.50
2019-03-25T08:34:19.194Z,6.30
2019-03-25T08:36:46.851Z,6.30
2019-03-25T08:39:14.628Z,6.30
2019-03-25T08:41:42.449Z,6.30
2019-03-25T08:44:10.096Z,6.20
2019-03-25T08:46:37.739Z,6.10
2019-03-25T08:49:05.532Z,6.00
2019-03-25T08:51:33.332Z,5.90
2019-03-25T08:54:01.775Z,5.90
2019-03-25T08:56:29.585Z,5.80
2019-03-25T08:58:57.334Z,5.70
2019-03-25T09:01:25.107Z,5.70
2019-03-25T09:03:52.805Z,5.70
2019-03-25T09:06:20.808Z,5.70
2019-03-25T09:08:48.510Z,5.70
2019-03-25T09:11:16.263Z,5.70
2019-03-25T09:13:44.161Z,5.70
2019-03-25T09:16:12.404Z,5.80
2019-03-25T09:18:40.300Z,6.10
2019-03-25T09:21:08.027Z,6.40
2019-03-25T09:23:35.808Z,6.80
2019-03-25T09:26:03.584Z,7.20
2019-03-25T09:28:31.380Z,7.70
2019-03-25T09:31:09.412Z,8.10
2019-03-25T09:33:37.269Z,8.20
2019-03-25T09:36:05.263Z,8.60
2019-03-25T09:38:33.074Z,8.60
2019-03-25T09:41:00.852Z,8.60
2019-03-25T09:43:28.656Z,8.70
2019-03-25T09:45:56.416Z,8.80
2019-03-25T09:48:24.204Z,8.80
2019-03-25T09:50:52.060Z,8.80
2019-03-25T09:53:19.804Z,9.10
2019-03-25T09:55:47.620Z,9.30
2019-03-25T09:58:15.448Z,9.80
2019-03-25T10:00:43.183Z,10.20
2019-03-25T10:03:11.024Z,9.90
2019-03-25T10:05:38.823Z,9.50
2019-03-25T10:08:06.612Z,9.20
2019-03-25T10:10:34.281Z,8.90
2019-03-25T10:13:02.073Z,8.30
2019-03-25T10:15:29.875Z,7.60
2019-03-25T10:17:57.619Z,7.30
2019-03-25T10:20:25.305Z,7.20
2019-03-25T10:22:53.116Z,7.00
2019-03-25T10:25:20.856Z,7.10
2019-03-25T10:27:48.614Z,7.10
2019-03-25T10:30:16.708Z,7.30
2019-03-25T10:32:44.479Z,7.50
2019-03-25T10:35:12.364Z,7.80
2019-03-25T10:37:40.148Z,8.30
2019-03-25T10:40:09.071Z,8.90
2019-03-25T10:42:36.859Z,9.10
2019-03-25T10:45:04.903Z,9.20
2019-03-25T10:47:32.676Z,9.30
2019-03-25T10:50:00.464Z,9.20
2019-03-25T10:52:28.210Z,9.30
2019-03-25T10:57:25.020Z,9.80
2019-03-25T10:59:52.837Z,10.10
2019-03-25T11:02:20.640Z,10.20
2019-03-25T11:04:48.379Z,10.20
2019-03-25T11:07:16.133Z,10.20
2019-03-25T11:09:43.823Z,10.20
2019-03-25T11:12:11.607Z,10.20
2019-03-25T11:14:39.381Z,10.00
2019-03-25T11:17:07.173Z,9.80
2019-03-25T11:19:34.929Z,9.50
2019-03-25T11:22:02.717Z,9.40
2019-03-25T11:24:30.462Z,9.50
2019-03-25T11:26:58.365Z,9.90
2019-03-25T11:29:26.129Z,10.30
2019-03-25T11:31:53.896Z,10.60
2019-03-25T11:34:21.560Z,11.10
2019-03-25T11:36:49.382Z,11.50
2019-03-25T11:39:17.126Z,11.60
2019-03-25T11:41:44.956Z,11.60
2019-03-25T11:44:12.628Z,11.40
2019-03-25T11:46:40.366Z,11.50
2019-03-25T11:49:08.173Z,11.60
2019-03-25T11:51:35.966Z,11.50
2019-03-25T11:54:04.106Z,11.40
2019-03-25T11:56:31.900Z,11.00
2019-03-25T11:58:59.692Z,10.80
2019-03-25T12:01:27.462Z,10.60
2019-03-25T12:03:55.266Z,10.40
2019-03-25T12:06:23.038Z,10.20
2019-03-25T12:08:50.783Z,10.10
2019-03-25T12:11:18.567Z,10.30
2019-03-25T12:13:46.240Z,10.50
2019-03-25T12:16:14.043Z,10.90
2019-03-25T12:18:42.104Z,11.10
2019-03-25T12:21:09.799Z,11.40
2019-03-25T12:23:37.442Z,11.50
2019-03-25T12:26:05.203Z,11.60
2019-03-25T12:28:33.219Z,11.70
2019-03-25T12:31:01.024Z,11.70
2019-03-25T12:33:28.758Z,11.50
2019-03-25T12:35:56.573Z,11.60
2019-03-25T12:38:24.206Z,11.70
2019-03-25T12:40:52.015Z,11.80
2019-03-25T12:43:19.690Z,11.70
2019-03-25T12:45:47.868Z,11.70
2019-03-25T12:48:15.644Z,11.70
2019-03-25T12:50:43.413Z,11.80
2019-03-25T12:53:11.075Z,11.70
2019-03-25T12:55:38.901Z,11.80
2019-03-25T12:58:07.636Z,11.80
2019-03-25T13:00:40.213Z,11.90
2019-03-25T13:03:08.023Z,11.80
2019-03-25T13:05:35.885Z,11.70
2019-03-25T13:08:03.763Z,11.70
2019-03-25T13:10:31.542Z,11.70
2019-03-25T13:12:59.303Z,11.90
2019-03-25T13:15:27.067Z,11.80
2019-03-25T13:17:54.847Z,11.90
2019-03-25T13:20:22.928Z,11.60
2019-03-25T13:22:50.820Z,11.40
2019-03-25T13:25:18.598Z,11.20
2019-03-25T13:27:46.285Z,11.00
2019-03-25T13:30:14.163Z,10.80
2019-03-25T13:32:42.175Z,10.70
2019-03-25T13:35:09.960Z,10.60
2019-03-25T13:37:37.712Z,10.20
2019-03-25T13:40:06.787Z,10.00
2019-03-25T13:42:34.534Z,9.70
2019-03-25T13:45:02.348Z,9.30
2019-03-25T13:47:30.556Z,9.10
2019-03-25T13:49:58.223Z,8.80
2019-03-25T13:52:25.972Z,8.70
2019-03-25T13:54:53.774Z,8.50
2019-03-25T13:57:21.508Z,8.50
2019-03-25T13:59:49.291Z,8.60
2019-03-25T14:02:16.947Z,8.70
2019-03-25T14:04:44.626Z,8.80
2019-03-25T14:07:13.613Z,8.90
2019-03-25T14:09:41.435Z,8.90
2019-03-25T14:12:09.187Z,9.00
2019-03-25T14:14:36.943Z,9.00
2019-03-25T14:17:04.744Z,9.00
2019-03-25T14:19:32.487Z,9.00
2019-03-25T14:22:00.254Z,9.00
2019-03-25T14:24:28.036Z,8.90
2019-03-25T14:26:55.832Z,8.80
2019-03-25T14:29:23.596Z,8.80
2019-03-25T14:31:51.400Z,8.60
2019-03-25T14:34:19.108Z,8.50
2019-03-25T14:36:46.876Z,7.90
2019-03-25T14:39:14.630Z,7.40
2019-03-25T14:41:42.384Z,7.10
2019-03-25T14:44:10.292Z,7.00
2019-03-25T14:46:38.061Z,6.80
2019-03-25T14:49:05.832Z,6.70
2019-03-25T14:51:33.600Z,6.50
2019-03-25T14:54:01.648Z,6.40
2019-03-25T14:56:29.470Z,6.30
2019-03-25T14:58:57.239Z,6.30
2019-03-25T15:01:24.991Z,6.50
2019-03-25T15:03:52.784Z,6.60
2019-03-25T15:06:20.711Z,6.80
2019-03-25T15:08:48.554Z,7.10
2019-03-25T15:11:16.465Z,7.10
2019-03-25T15:13:44.249Z,7.20
2019-03-25T15:16:11.920Z,7.30
2019-03-25T15:18:39.699Z,7.20
2019-03-25T15:21:07.502Z,7.30
2019-03-25T15:23:35.284Z,7.30
2019-03-25T15:26:03.164Z,7.30
2019-03-25T15:28:30.977Z,7.20
2019-03-25T15:30:58.878Z,7.20
2019-03-25T15:33:28.619Z,7.40
2019-03-25T15:35:56.514Z,7.60
2019-03-25T15:38:25.626Z,7.70
2019-03-25T15:40:53.503Z,7.90
2019-03-25T15:43:21.283Z,8.20
2019-03-25T15:45:50.974Z,8.30
2019-03-25T15:48:18.887Z,8.50
2019-03-25T15:50:46.983Z,8.60
2019-03-25T15:53:14.777Z,8.60
2019-03-25T15:55:42.503Z,8.60
2019-03-25T15:58:10.298Z,8.50
2019-03-25T16:00:47.711Z,8.60
2019-03-25T16:03:10.100Z,8.60
2019-03-25T16:05:37.876Z,8.50
2019-03-25T16:08:07.923Z,8.40
2019-03-25T16:10:35.698Z,8.30
2019-03-25T16:13:03.899Z,8.20
2019-03-25T16:15:56.852Z,8.10
2019-03-25T16:18:35.100Z,8.00
2019-03-25T16:21:02.888Z,7.90
2019-03-25T16:23:30.703Z,7.80
2019-03-25T16:25:58.395Z,7.50
2019-03-25T16:28:26.155Z,7.10
2019-03-25T16:30:58.685Z,6.50
2019-03-25T16:33:23.720Z,5.70
2019-03-25T16:35:51.501Z,5.00
2019-03-25T16:38:19.188Z,4.40
2019-03-25T16:40:46.868Z,4.00
2019-03-25T16:43:14.616Z,3.70
2019-03-25T16:45:42.448Z,3.50
2019-03-25T16:48:10.249Z,3.50
2019-03-25T16:50:38.288Z,3.40
2019-03-25T16:53:07.939Z,3.40
2019-03-25T16:55:36.131Z,3.40
2019-03-25T16:58:03.895Z,3.40
2019-03-25T17:00:31.681Z,3.50
2019-03-25T17:02:59.454Z,3.60
2019-03-25T17:05:27.279Z,4.00
2019-03-25T17:07:55.024Z,3.80
2019-03-25T17:10:23.942Z,3.80
2019-03-25T17:12:52.298Z,4.10
2019-03-25T17:15:21.080Z,4.00
2019-03-25T17:17:48.755Z,4.10
2019-03-25T17:20:17.167Z,4.20
2019-03-25T17:22:45.483Z,4.30
2019-03-25T17:25:13.655Z,4.30
2019-03-25T17:27:41.464Z,4.40
2019-03-25T17:30:13.458Z,4.40
2019-03-25T17:32:43.068Z,4.40
2019-03-25T17:35:15.880Z,4.40
2019-03-25T17:37:44.420Z,4.30
2019-03-25T17:40:18.289Z,4.40
2019-03-25T17:42:46.255Z,4.20
2019-03-25T17:45:20.339Z,4.10
2019-03-25T17:47:48.536Z,4.10
2019-03-25T17:50:17.065Z,4.30
2019-03-25T17:52:45.744Z,4.10
2019-03-25T17:55:21.366Z,4.20
2019-03-25T17:57:49.738Z,4.20
2019-03-25T18:00:41.432Z,4.10
2019-03-25T18:03:11.213Z,4.10
2019-03-25T18:05:42.087Z,4.00
2019-03-25T18:08:09.937Z,4.00
2019-03-25T18:10:37.692Z,4.00
2019-03-25T18:13:05.491Z,4.00
2019-03-25T18:15:34.520Z,3.90
2019-03-25T18:18:02.337Z,3.80
2019-03-25T18:20:31.488Z,3.70
2019-03-25T18:23:06.792Z,3.60
2019-03-25T18:25:35.885Z,3.60
2019-03-25T18:28:03.721Z,3.60
2019-03-25T18:30:31.895Z,3.60
2019-03-25T18:33:01.170Z,3.50
2019-03-25T18:35:29.166Z,3.40
2019-03-25T18:37:59.220Z,3.30
2019-03-25T18:40:27.144Z,3.30
2019-03-25T18:42:57.747Z,3.20
2019-03-25T18:45:26.163Z,3.20
2019-03-25T18:47:54.217Z,3.20
2019-03-25T18:50:25.315Z,3.10
2019-03-25T18:52:56.859Z,3.20
2019-03-25T18:55:25.992Z,3.20
2019-03-25T18:57:53.807Z,3.20
2019-03-25T19:00:32.818Z,3.30
2019-03-25T19:03:01.874Z,3.30
2019-03-25T19:05:32.463Z,3.30
2019-03-25T19:08:03.020Z,3.30
2019-03-25T19:10:30.998Z,3.20
2019-03-25T19:12:59.352Z,3.10
2019-03-25T19:15:27.464Z,3.10
2019-03-25T19:17:55.502Z,3.20
2019-03-25T19:20:24.616Z,2.90
2019-03-25T19:22:52.667Z,2.80
2019-03-25T19:25:20.399Z,2.70
2019-03-25T19:27:48.105Z,2.70
2019-03-25T19:30:16.345Z,2.60
2019-03-25T19:32:45.382Z,2.50
2019-03-25T19:35:13.102Z,2.50
2019-03-25T19:37:41.762Z,2.40
2019-03-25T19:40:09.858Z,2.50
2019-03-25T19:42:37.598Z,2.50
2019-03-25T19:45:05.664Z,2.50
2019-03-25T19:47:33.444Z,2.50
2019-03-25T19:50:01.254Z,2.50
2019-03-25T19:52:29.019Z,2.40
2019-03-25T19:54:56.805Z,2.40
2019-03-25T19:57:24.486Z,2.30
2019-03-25T19:59:52.313Z,2.30
2019-03-25T20:02:22.074Z,2.30
2019-03-25T20:04:49.806Z,2.30
2019-03-25T20:07:18.055Z,2.50
2019-03-25T20:09:47.041Z,2.20
2019-03-25T20:12:14.975Z,2.20
2019-03-25T20:14:42.768Z,2.30
2019-03-25T20:17:10.589Z,2.30
2019-03-25T20:19:38.650Z,2.30
2019-03-25T20:22:06.856Z,2.40
2019-03-25T20:24:34.689Z,2.40
2019-03-25T20:27:02.430Z,2.50
2019-03-25T20:29:30.544Z,2.50
2019-03-25T20:31:58.304Z,2.50
2019-03-25T20:34:26.059Z,2.50
2019-03-25T20:36:53.909Z,2.60
2019-03-25T20:39:23.559Z,2.60
2019-03-25T20:41:51.909Z,2.60
2019-03-25T20:44:19.604Z,2.60
2019-03-25T20:46:48.508Z,2.60
2019-03-25T20:49:16.306Z,2.60
2019-03-25T20:51:45.948Z,2.70
2019-03-25T20:54:13.852Z,2.60
2019-03-25T20:56:42.566Z,2.70
2019-03-25T20:59:10.266Z,2.70
2019-03-25T21:01:38.936Z,2.70
2019-03-25T21:04:09.350Z,2.70
2019-03-25T21:06:40.003Z,2.60
2019-03-25T21:09:07.956Z,2.60
2019-03-25T21:11:35.787Z,2.60
2019-03-25T21:14:03.823Z,2.60
2019-03-25T21:16:32.557Z,2.60
2019-03-25T21:19:00.320Z,2.60
2019-03-25T21:21:27.962Z,2.50
2019-03-25T21:23:55.650Z,2.50
2019-03-25T21:26:23.407Z,2.40
2019-03-25T21:28:51.228Z,2.40
2019-03-25T21:31:19.109Z,2.70
2019-03-25T21:33:46.794Z,2.30
2019-03-25T21:36:14.652Z,2.20
2019-03-25T21:38:42.519Z,2.20
2019-03-25T21:41:10.242Z,2.10
2019-03-25T21:43:37.971Z,2.10
2019-03-25T21:46:05.778Z,2.10
2019-03-25T21:48:33.452Z,2.10
2019-03-25T21:51:01.230Z,2.10
2019-03-25T21:53:29.013Z,2.10
2019-03-25T21:55:56.834Z,2.10
2019-03-25T21:58:24.660Z,2.20
2019-03-25T22:00:52.411Z,2.10
2019-03-25T22:03:20.199Z,2.20
2019-03-25T22:05:48.112Z,2.10
2019-03-25T22:08:15.783Z,2.10
2019-03-25T22:10:43.519Z,2.10
2019-03-25T22:13:11.380Z,2.10
2019-03-25T22:15:39.018Z,2.00
2019-03-25T22:18:06.774Z,2.00
2019-03-25T22:20:34.559Z,2.00
2019-03-25T22:23:02.343Z,2.00
2019-03-25T22:25:30.180Z,2.00
2019-03-25T22:27:57.987Z,2.00
2019-03-25T22:30:25.998Z,2.00
2019-03-25T22:32:53.872Z,2.00
2019-03-25T22:35:21.683Z,2.00
2019-03-25T22:37:49.443Z,2.00
2019-03-25T22:40:17.256Z,2.00
2019-03-25T22:42:44.938Z,2.00
2019-03-25T22:45:12.712Z,2.00
2019-03-25T22:47:40.416Z,2.00
2019-03-25T22:50:14.852Z,1.90
2019-03-25T22:52:42.615Z,1.80
2019-03-25T22:55:10.377Z,1.90
2019-03-25T22:57:38.352Z,1.90
2019-03-25T23:00:09.744Z,1.80
2019-03-25T23:02:37.817Z,1.70
2019-03-25T23:05:05.528Z,1.60
2019-03-25T23:07:33.248Z,1.60
2019-03-25T23:10:01.053Z,1.50
2019-03-25T23:12:28.730Z,1.40
2019-03-25T23:14:56.499Z,1.40
2019-03-25T23:17:24.165Z,1.30
2019-03-25T23:19:51.856Z,1.30
2019-03-25T23:22:19.682Z,1.30
2019-03-25T23:24:47.447Z,1.30
2019-03-25T23:27:15.528Z,1.20
2019-03-25T23:29:43.328Z,1.30
2019-03-25T23:32:11.096Z,1.30
2019-03-25T23:34:38.882Z,1.30
2019-03-25T23:37:06.664Z,1.30
2019-03-25T23:39:34.422Z,1.40
2019-03-25T23:42:02.111Z,1.50
2019-03-25T23:44:29.931Z,1.50
2019-03-25T23:46:57.700Z,1.50
2019-03-25T23:49:25.364Z,1.50
2019-03-25T23:51:53.030Z,1.70
2019-03-25T23:54:20.695Z,1.70
2019-03-25T23:56:48.424Z,1.70
2019-03-25T23:59:16.216Z,1.80
